Time;durP1;ratioP1;P1;durP2;ratioP2;P2;SDS_P1;SDS_P2;PMS_P1;PMS_P2;Temp;Humidity;BMP_temperature;BMP_pressure;BME280_temperature;BME280_humidity;BME280_pressure;Samples;Min_cycle;Max_cycle;Signal;HPM_P1;HPM_P2
2021/11/17 02:27:33;;;;;;;10.20;7.32;;;7.60;81.10;;;;;;5054204;28;20047;-67
2021/11/17 02:30:35;;;;;;;11.93;7.60;;;7.60;81.10;;;;;;5054220;28;20115;-67
2021/11/17 02:33:09;;;;;;;9.93;7.05;;;7.60;80.90;;;;;;5057422;28;20484;-67
2021/11/17 02:36:13;;;;;;;10.13;7.25;;;7.60;81.00;;;;;;5055789;28;20403;-67
2021/11/17 02:38:53;;;;;;;10.20;7.03;;;7.60;80.90;;;;;;5056991;28;20052;-67
2021/11/17 02:41:47;;;;;;;10.00;7.00;;;7.60;81.00;;;;;;5058871;28;20040;-67
2021/11/17 02:44:40;;;;;;;9.50;6.78;;;7.60;81.00;;;;;;5060364;28;20037;-67
2021/11/17 02:47:21;;;;;;;10.77;7.18;;;7.70;81.00;;;;;;5059892;28;20040;-67
2021/11/17 02:50:16;;;;;;;9.52;7.20;;;7.60;80.90;;;;;;5057518;28;20589;-67
2021/11/17 02:53:04;;;;;;;9.80;7.05;;;7.60;80.80;;;;;;5059969;28;20029;-68
2021/11/17 02:55:52;;;;;;;9.50;7.25;;;7.60;80.80;;;;;;5057999;28;20024;-66
2021/11/17 02:58:43;;;;;;;11.77;7.35;;;7.60;81.00;;;;;;5060059;28;20021;-67
2021/11/17 03:01:24;;;;;;;10.63;7.50;;;7.60;81.00;;;;;;5058823;28;20087;-67
2021/11/17 03:03:50;;;;;;;10.02;7.15;;;7.60;81.00;;;;;;5056817;28;20033;-67
2021/11/17 03:06:22;;;;;;;9.70;7.55;;;7.60;81.10;;;;;;5060499;28;20043;-68
2021/11/17 03:08:47;;;;;;;10.70;7.65;;;7.60;81.20;;;;;;5060389;28;20033;-67
2021/11/17 03:11:34;;;;;;;11.23;7.72;;;7.60;81.20;;;;;;5061840;28;20032;-67
2021/11/17 03:14:25;;;;;;;10.70;7.63;;;7.60;81.10;;;;;;5062155;28;20548;-67
2021/11/17 03:17:14;;;;;;;11.30;7.60;;;7.60;81.10;;;;;;5059830;28;20033;-67
2021/11/17 03:19:42;;;;;;;12.35;7.90;;;7.60;81.20;;;;;;5061081;28;20503;-67
2021/11/17 03:22:23;;;;;;;11.13;7.32;;;7.60;81.20;;;;;;5060283;28;20142;-67
2021/11/17 03:25:18;;;;;;;11.77;7.30;;;7.60;81.20;;;;;;5059586;28;20064;-68
2021/11/17 03:28:29;;;;;;;12.30;8.30;;;7.60;81.20;;;;;;5059260;28;20032;-67
2021/11/17 03:31:07;;;;;;;11.25;7.53;;;7.60;81.20;;;;;;5061175;28;20048;-67
2021/11/17 03:33:42;;;;;;;10.10;7.32;;;7.60;81.20;;;;;;5059218;28;20110;-68
2021/11/17 03:36:29;;;;;;;9.90;7.18;;;7.60;81.20;;;;;;5060627;28;20163;-67
2021/11/17 03:38:57;;;;;;;10.18;7.05;;;7.60;81.20;;;;;;5059429;28;20026;-68
2021/11/17 03:41:44;;;;;;;12.48;7.60;;;7.50;81.10;;;;;;5060534;28;20502;-67
2021/11/17 03:44:51;;;;;;;10.95;7.43;;;7.60;81.30;;;;;;5059610;28;20033;-68
2021/11/17 03:47:31;;;;;;;10.85;7.03;;;7.60;81.30;;;;;;5060069;28;20048;-68
2021/11/17 03:50:06;;;;;;;10.70;7.53;;;7.60;81.30;;;;;;5059534;28;20032;-67
2021/11/17 03:52:49;;;;;;;11.30;6.93;;;7.60;81.30;;;;;;5060757;28;20032;-67
2021/11/17 03:55:35;;;;;;;11.27;7.57;;;7.60;81.30;;;;;;5059158;28;20032;-67
2021/11/17 03:58:17;;;;;;;10.77;7.45;;;7.60;81.40;;;;;;5061566;28;20033;-67
2021/11/17 04:01:04;;;;;;;9.93;7.25;;;7.60;81.50;;;;;;5060922;28;20106;-67
2021/11/17 04:03:54;;;;;;;10.70;7.30;;;7.60;81.50;;;;;;5059880;28;20642;-67
2021/11/17 04:06:32;;;;;;;11.77;7.43;;;7.60;81.50;;;;;;5059691;28;20411;-67
2021/11/17 04:09:00;;;;;;;11.02;7.03;;;7.60;81.50;;;;;;5059095;28;20100;-67
2021/11/17 04:11:54;;;;;;;13.23;7.65;;;7.60;81.50;;;;;;5060548;28;20025;-67
2021/11/17 04:14:31;;;;;;;13.00;7.95;;;7.60;81.50;;;;;;5061494;28;20141;-67
2021/11/17 04:17:15;;;;;;;11.15;7.68;;;7.60;81.40;;;;;;5060373;28;20028;-67
2021/11/17 04:19:41;;;;;;;12.73;8.48;;;7.50;81.50;;;;;;5059475;28;20036;-67
2021/11/17 04:22:22;;;;;;;14.77;9.85;;;7.50;81.50;;;;;;5062283;28;20037;-67
2021/11/17 04:25:15;;;;;;;13.23;9.27;;;7.50;81.60;;;;;;5059617;28;20032;-67
2021/11/17 04:27:56;;;;;;;15.38;9.52;;;7.50;81.70;;;;;;5059738;28;20044;-67
2021/11/17 04:30:40;;;;;;;14.00;9.07;;;7.50;81.90;;;;;;5060639;28;20033;-68
2021/11/17 04:33:17;;;;;;;11.82;8.35;;;7.50;81.90;;;;;;5059528;28;20028;-67
2021/11/17 04:36:01;;;;;;;14.30;9.00;;;7.50;82.00;;;;;;5058306;28;20040;-68
2021/11/17 04:39:14;;;;;;;13.55;9.10;;;7.50;82.00;;;;;;5057585;28;20024;-67
2021/11/17 04:42:12;;;;;;;12.43;8.38;;;7.50;81.90;;;;;;5056694;28;20444;-67
2021/11/17 04:44:47;;;;;;;12.30;8.18;;;7.50;81.90;;;;;;5054283;28;20712;-67
2021/11/17 04:47:13;;;;;;;;;;;7.50;81.70;;;;;;5059568;28;20030;-67
2021/11/17 04:50:08;;;;;;;12.20;8.38;;;7.60;81.90;;;;;;5057734;28;19924;-67
2021/11/17 04:53:15;;;;;;;13.77;9.00;;;7.50;81.60;;;;;;5059013;28;20091;-67
2021/11/17 04:56:12;;;;;;;14.27;8.90;;;7.50;81.70;;;;;;5058110;28;20129;-67
2021/11/17 04:58:40;;;;;;;13.52;8.25;;;7.40;81.70;;;;;;5057877;28;20037;-67
2021/11/17 05:01:12;;;;;;;14.63;8.70;;;7.40;81.90;;;;;;5058708;28;20210;-67
2021/11/17 05:03:49;;;;;;;14.18;8.82;;;7.40;82.00;;;;;;5058349;28;20114;-66
2021/11/17 05:06:30;;;;;;;10.38;7.43;;;7.40;81.90;;;;;;5053319;28;20172;-67
2021/11/17 05:09:04;;;;;;;10.95;7.30;;;7.40;81.90;;;;;;5055189;28;20028;-67
2021/11/17 05:11:30;;;;;;;11.75;8.15;;;7.40;81.90;;;;;;5055505;28;20033;-67
2021/11/17 05:14:11;;;;;;;12.32;7.82;;;7.30;81.90;;;;;;5056909;28;20035;-67
2021/11/17 05:16:45;;;;;;;11.95;8.13;;;7.30;81.90;;;;;;5053653;28;20032;-68
2021/11/17 05:19:11;;;;;;;10.38;7.70;;;7.40;81.80;;;;;;5056878;28;20032;-67
2021/11/17 05:21:51;;;;;;;10.75;7.43;;;7.30;81.90;;;;;;5055602;28;20033;-66
2021/11/17 05:24:35;;;;;;;10.07;7.30;;;7.30;81.90;;;;;;5058635;28;20037;-67
2021/11/17 05:27:42;;;;;;;9.90;7.20;;;7.30;81.80;;;;;;5054827;28;20068;-68
2021/11/17 05:30:32;;;;;;;11.88;7.43;;;7.30;81.70;;;;;;5055574;28;20121;-66
2021/11/17 05:33:23;;;;;;;12.15;7.50;;;7.30;81.90;;;;;;5054290;28;20400;-67
2021/11/17 05:35:51;;;;;;;11.00;7.10;;;7.30;82.70;;;;;;5055677;28;20128;-67
2021/11/17 05:38:17;;;;;;;11.80;7.53;;;7.30;82.00;;;;;;5055069;28;20524;-67
2021/11/17 05:41:01;;;;;;;11.18;7.05;;;7.30;82.10;;;;;;5056264;28;20033;-66
2021/11/17 05:43:29;;;;;;;9.95;6.90;;;7.30;82.30;;;;;;5056284;28;20036;-67
2021/11/17 05:46:10;;;;;;;10.15;6.55;;;7.30;82.30;;;;;;5056706;28;20033;-67
2021/11/17 05:49:15;;;;;;;9.18;6.50;;;7.30;82.20;;;;;;5056718;28;20032;-67
2021/11/17 05:52:27;;;;;;;8.90;6.13;;;7.30;82.10;;;;;;5056889;28;20032;-67
2021/11/17 05:55:04;;;;;;;10.88;6.95;;;7.30;82.10;;;;;;5056485;28;20554;-67
2021/11/17 05:57:59;;;;;;;9.90;7.45;;;7.30;82.20;;;;;;5055915;28;20098;-67
2021/11/17 06:01:09;;;;;;;7.20;5.15;;;7.30;82.20;;;;;;5056300;28;20043;-67
2021/11/17 06:03:54;;;;;;;8.65;5.80;;;7.30;82.10;;;;;;5057147;28;20097;-67
2021/11/17 06:06:22;;;;;;;8.45;5.78;;;7.30;82.10;;;;;;5056012;28;20032;-67
2021/11/17 06:08:47;;;;;;;9.05;6.10;;;7.30;82.00;;;;;;5055445;28;20123;-67
2021/11/17 06:11:13;;;;;;;10.70;6.80;;;7.30;82.10;;;;;;5054237;28;20116;-66
2021/11/17 06:13:39;;;;;;;14.23;9.50;;;7.30;82.20;;;;;;5061640;28;20515;-67
2021/11/17 06:16:06;;;;;;;15.48;9.60;;;7.30;82.20;;;;;;5061140;28;20033;-67
2021/11/17 06:18:34;;;;;;;11.70;7.95;;;7.30;82.20;;;;;;5060403;28;20500;-67
2021/11/17 06:21:02;;;;;;;12.48;8.00;;;7.30;82.30;;;;;;5061203;28;20094;-66
2021/11/17 06:23:32;;;;;;;11.95;7.20;;;7.30;82.30;;;;;;5060161;28;20536;-67
2021/11/17 06:25:58;;;;;;;10.93;7.63;;;7.30;82.40;;;;;;5061433;28;20041;-67
2021/11/17 06:28:27;;;;;;;10.05;7.15;;;7.30;82.40;;;;;;5059674;28;20354;-67
2021/11/17 06:30:55;;;;;;;11.27;7.47;;;7.30;82.40;;;;;;5060974;28;20060;-66
2021/11/17 06:33:21;;;;;;;13.40;8.77;;;7.30;82.40;;;;;;5060330;28;20039;-68
2021/11/17 06:35:47;;;;;;;12.43;8.65;;;7.30;82.40;;;;;;5060676;28;20041;-67
2021/11/17 06:38:14;;;;;;;10.60;8.07;;;7.30;82.30;;;;;;5059194;28;20032;-67
2021/11/17 06:40:43;;;;;;;10.43;6.95;;;7.30;82.40;;;;;;5059353;28;20054;-67
2021/11/17 06:43:09;;;;;;;10.88;6.75;;;7.30;82.40;;;;;;5060678;28;20111;-67
2021/11/17 06:45:38;;;;;;;7.55;6.43;;;7.30;83.30;;;;;;5060952;28;20037;-67
2021/11/17 06:48:05;;;;;;;8.65;6.65;;;7.30;82.50;;;;;;5060448;28;20121;-67
2021/11/17 06:50:31;;;;;;;7.65;5.72;;;7.30;82.50;;;;;;5059166;28;20033;-66
2021/11/17 06:52:57;;;;;;;8.82;5.88;;;7.30;82.50;;;;;;5059574;28;20035;-67
2021/11/17 06:55:23;;;;;;;7.57;5.72;;;7.30;82.40;;;;;;5059136;28;20033;-67
2021/11/17 06:57:48;;;;;;;8.73;5.60;;;7.30;82.40;;;;;;5060349;28;20507;-67
2021/11/17 07:00:21;;;;;;;8.55;5.68;;;7.30;82.40;;;;;;5059516;28;20040;-67
2021/11/17 07:02:47;;;;;;;7.93;5.55;;;7.30;82.50;;;;;;5059540;28;20474;-68
2021/11/17 07:05:13;;;;;;;8.40;5.65;;;7.30;82.50;;;;;;5060131;28;20516;-67
2021/11/17 07:07:39;;;;;;;9.32;6.03;;;7.30;82.60;;;;;;5059881;28;21082;-67
2021/11/17 07:10:07;;;;;;;8.50;5.88;;;7.30;82.60;;;;;;5059416;28;20063;-67
2021/11/17 07:12:33;;;;;;;7.28;5.32;;;7.30;82.70;;;;;;5057859;28;20045;-68
2021/11/17 07:14:58;;;;;;;12.68;6.10;;;7.30;82.70;;;;;;5061049;28;20491;-67
2021/11/17 07:17:24;;;;;;;11.35;5.95;;;7.30;82.70;;;;;;5066025;28;20420;-68
2021/11/17 07:19:50;;;;;;;10.60;5.60;;;7.30;82.60;;;;;;5060261;28;20029;-67
2021/11/17 07:22:15;;;;;;;10.65;5.68;;;7.30;82.60;;;;;;5060192;28;20043;-66
2021/11/17 07:24:41;;;;;;;12.48;6.07;;;7.30;82.60;;;;;;5058359;28;20029;-68
2021/11/17 07:27:12;;;;;;;10.88;6.35;;;7.20;82.50;;;;;;5060554;28;20029;-68
2021/11/17 07:29:38;;;;;;;9.98;5.85;;;7.30;82.50;;;;;;5066170;28;20052;-67
2021/11/17 07:32:04;;;;;;;7.80;5.65;;;7.30;82.60;;;;;;5059923;28;20120;-67
2021/11/17 07:34:30;;;;;;;9.65;5.53;;;7.30;82.60;;;;;;5059342;28;20193;-67
2021/11/17 07:36:56;;;;;;;9.35;6.03;;;7.30;82.60;;;;;;5058999;28;20719;-67
2021/11/17 07:39:21;;;;;;;7.13;5.43;;;7.30;82.60;;;;;;5059735;28;20106;-67
2021/11/17 07:41:49;;;;;;;8.98;6.43;;;7.40;82.60;;;;;;5059428;28;20041;-67
2021/11/17 07:44:16;;;;;;;13.10;6.13;;;7.30;82.40;;;;;;5060120;28;20547;-68
2021/11/17 07:46:46;;;;;;;10.07;6.00;;;7.30;82.40;;;;;;5058894;28;20511;-67
2021/11/17 07:49:14;;;;;;;7.80;5.30;;;7.40;82.40;;;;;;5059812;28;20028;-67
2021/11/17 07:51:40;;;;;;;11.70;6.05;;;7.40;82.60;;;;;;5058936;28;20060;-67
2021/11/17 07:54:06;;;;;;;10.13;5.15;;;7.40;82.50;;;;;;5058387;28;20419;-67
2021/11/17 07:56:34;;;;;;;10.98;6.07;;;7.40;82.40;;;;;;5058890;28;20040;-67
2021/11/17 07:59:01;;;;;;;9.57;5.63;;;7.40;82.50;;;;;;5059884;28;20499;-67
2021/11/17 08:01:28;;;;;;;10.52;5.10;;;7.40;82.50;;;;;;5059587;28;20025;-67
2021/11/17 08:03:54;;;;;;;11.18;5.20;;;7.50;82.50;;;;;;5059468;28;20156;-67
2021/11/17 08:06:24;;;;;;;10.75;5.30;;;7.50;82.90;;;;;;5059227;28;20111;-67
2021/11/17 08:08:52;;;;;;;8.55;4.57;;;7.50;82.20;;;;;;5058584;28;20041;-68
2021/11/17 08:11:18;;;;;;;7.93;4.47;;;7.50;82.10;;;;;;5059931;28;20039;-67
2021/11/17 08:13:44;;;;;;;8.20;4.18;;;7.60;82.00;;;;;;5059299;28;20212;-66
2021/11/17 08:16:12;;;;;;;7.07;4.00;;;7.60;82.00;;;;;;5058554;28;20086;-67
2021/11/17 08:18:42;;;;;;;6.55;3.50;;;7.60;81.90;;;;;;5058459;28;20089;-67
2021/11/17 08:21:09;;;;;;;9.48;4.22;;;7.60;81.70;;;;;;5058767;28;20033;-67
2021/11/17 08:23:35;;;;;;;4.93;3.22;;;7.60;81.50;;;;;;5059381;28;20052;-67
2021/11/17 08:26:01;;;;;;;4.72;3.03;;;7.60;81.30;;;;;;5059023;28;20033;-67
2021/11/17 08:28:26;;;;;;;5.47;2.97;;;7.60;81.20;;;;;;5058718;28;20093;-68
2021/11/17 08:30:52;;;;;;;4.22;3.00;;;7.60;81.20;;;;;;5058289;28;20040;-67
2021/11/17 08:33:18;;;;;;;4.85;2.88;;;7.60;81.20;;;;;;5057894;28;20115;-67
2021/11/17 08:35:45;;;;;;;3.30;2.80;;;7.60;81.00;;;;;;5057055;28;20805;-67
2021/11/17 08:38:16;;;;;;;5.15;2.63;;;7.60;81.00;;;;;;5057937;28;20055;-67
2021/11/17 08:40:52;;;;;;;4.55;2.92;;;7.60;81.20;;;;;;5058700;28;20037;-65
2021/11/17 08:43:19;;;;;;;3.13;2.50;;;7.70;81.20;;;;;;5057663;28;20409;-67
2021/11/17 08:45:45;;;;;;;2.85;2.30;;;7.70;81.20;;;;;;5059347;28;20116;-67
2021/11/17 08:48:11;;;;;;;4.82;2.40;;;7.70;81.00;;;;;;5058598;28;20040;-67
2021/11/17 08:50:39;;;;;;;3.75;2.22;;;7.70;80.90;;;;;;5057049;28;20040;-67
2021/11/17 08:53:07;;;;;;;3.78;1.92;;;7.80;80.80;;;;;;5057665;28;20151;-67
2021/11/17 08:55:33;;;;;;;1.75;1.60;;;7.80;80.30;;;;;;5058359;28;20041;-67
2021/11/17 08:58:05;;;;;;;1.38;1.17;;;7.80;79.80;;;;;;5058223;28;20398;-67
2021/11/17 09:00:30;;;;;;;1.63;1.33;;;7.70;78.90;;;;;;5056979;28;20037;-67
2021/11/17 09:02:58;;;;;;;1.50;1.40;;;7.70;79.30;;;;;;5053085;28;20033;-67
2021/11/17 09:05:28;;;;;;;1.80;1.40;;;7.70;79.30;;;;;;5058541;28;20033;-67
2021/11/17 09:07:54;;;;;;;3.85;1.50;;;7.60;78.90;;;;;;5059139;28;20056;-67
2021/11/17 09:10:27;;;;;;;4.97;1.55;;;7.60;79.10;;;;;;5060400;28;20025;-67
2021/11/17 09:12:53;;;;;;;2.20;1.52;;;7.60;79.30;;;;;;5057647;28;20461;-67
2021/11/17 09:15:21;;;;;;;1.90;1.33;;;7.60;79.50;;;;;;5056885;28;20106;-66
2021/11/17 09:17:47;;;;;;;2.53;1.40;;;7.60;79.50;;;;;;5057340;28;20163;-67
2021/11/17 09:20:15;;;;;;;1.42;1.13;;;7.60;79.60;;;;;;5057509;28;20500;-67
2021/11/17 09:22:41;;;;;;;1.25;1.15;;;7.50;79.40;;;;;;5057707;28;20396;-68
2021/11/17 09:25:10;;;;;;;1.77;1.00;;;7.50;79.30;;;;;;5057873;28;20102;-67
2021/11/17 09:27:37;;;;;;;3.00;1.33;;;7.50;79.30;;;;;;5057774;28;20629;-67
2021/11/17 09:30:06;;;;;;;4.22;1.75;;;7.50;79.60;;;;;;5057403;28;20230;-67
2021/11/17 09:32:32;;;;;;;3.55;1.08;;;7.50;79.70;;;;;;5055923;28;20043;-67
2021/11/17 09:35:05;;;;;;;2.40;1.05;;;7.50;79.70;;;;;;5057254;28;20044;-67
2021/11/17 09:37:30;;;;;;;1.45;1.35;;;7.50;79.30;;;;;;5056726;28;20085;-68
2021/11/17 09:39:57;;;;;;;1.70;1.40;;;7.60;79.30;;;;;;5057875;28;20033;-67
2021/11/17 09:42:24;;;;;;;11.02;1.73;;;7.60;79.40;;;;;;5057959;28;20170;-67
2021/11/17 09:44:51;;;;;;;5.75;2.00;;;7.60;79.50;;;;;;5058337;28;20032;-67
2021/11/17 09:47:21;;;;;;;2.53;1.80;;;7.70;79.40;;;;;;5056923;28;20067;-68
2021/11/17 09:50:21;;;;;;;4.43;1.90;;;7.70;79.10;;;;;;5058670;28;20033;-67
2021/11/17 09:53:02;;;;;;;4.93;1.80;;;7.70;78.70;;;;;;5056768;28;20037;-67
2021/11/17 09:55:37;;;;;;;1.95;1.60;;;7.80;78.40;;;;;;5057598;28;20123;-67
2021/11/17 09:58:11;;;;;;;2.00;1.80;;;7.80;77.90;;;;;;5058018;28;20173;-67
2021/11/17 10:00:47;;;;;;;1.83;1.58;;;7.80;77.80;;;;;;5056977;28;20033;-67
2021/11/17 10:03:34;;;;;;;2.97;1.98;;;7.70;77.60;;;;;;5057561;28;20528;-67
2021/11/17 10:06:45;;;;;;;1.50;1.40;;;7.70;77.20;;;;;;5056927;28;20033;-67
2021/11/17 10:15:03;;;;;;;2.33;1.70;;;7.70;77.80;;;;;;5057034;28;20763;-67
2021/11/17 10:17:47;;;;;;;6.43;1.50;;;7.60;77.70;;;;;;5057051;28;20029;-67
2021/11/17 10:20:26;;;;;;;1.45;1.00;;;7.60;77.00;;;;;;5058195;28;20029;-68
2021/11/17 10:23:21;;;;;;;1.65;0.90;;;7.60;76.40;;;;;;5057980;28;20127;-68
2021/11/17 10:25:51;;;;;;;1.17;1.05;;;7.60;75.80;;;;;;5056250;28;20412;-68
2021/11/17 10:28:29;;;;;;;2.20;1.30;;;7.60;76.50;;;;;;5057088;28;20060;-67
2021/11/17 10:30:57;;;;;;;2.08;1.88;;;7.60;76.60;;;;;;5057136;28;20033;-67
2021/11/17 10:33:42;;;;;;;3.10;2.03;;;7.50;77.00;;;;;;5056934;28;20033;-68
2021/11/17 10:36:27;;;;;;;7.60;1.88;;;7.50;77.00;;;;;;5057185;28;20037;-68
2021/11/17 10:39:23;;;;;;;2.95;1.60;;;7.50;77.30;;;;;;5056528;28;20075;-68
2021/11/17 10:42:03;;;;;;;1.60;1.50;;;7.60;77.30;;;;;;5057310;28;20555;-67
2021/11/17 10:44:46;;;;;;;2.00;1.80;;;7.50;77.80;;;;;;5057731;28;20041;-67
2021/11/17 10:47:34;;;;;;;5.90;1.70;;;7.60;77.50;;;;;;5055876;28;20127;-68
2021/11/17 10:50:03;;;;;;;2.53;1.60;;;7.60;77.50;;;;;;5057614;28;20504;-67
2021/11/17 10:53:01;;;;;;;2.65;1.60;;;7.70;77.90;;;;;;5057685;28;20040;-67
2021/11/17 10:55:44;;;;;;;1.60;1.40;;;7.70;77.00;;;;;;5056605;28;20116;-67
2021/11/17 10:58:18;;;;;;;1.52;1.40;;;7.70;77.00;;;;;;5058708;28;20036;-67
2021/11/17 11:00:47;;;;;;;3.83;1.52;;;7.70;76.80;;;;;;5060105;28;20064;-68
2021/11/17 11:03:14;;;;;;;3.03;1.52;;;7.80;77.00;;;;;;5061386;28;20033;-68
2021/11/17 11:06:03;;;;;;;2.22;1.80;;;7.80;77.20;;;;;;5060320;28;20040;-67
2021/11/17 11:08:54;;;;;;;1.38;1.25;;;7.80;76.90;;;;;;5060169;28;20037;-68
2021/11/17 11:11:20;;;;;;;2.17;1.15;;;7.80;76.40;;;;;;5060469;28;20037;-67
2021/11/17 11:13:52;;;;;;;2.42;1.30;;;7.90;77.00;;;;;;5061749;28;20053;-67
2021/11/17 11:16:49;;;;;;;6.63;1.55;;;7.90;76.60;;;;;;5060952;28;20146;-67
2021/11/17 11:19:15;;;;;;;4.00;1.30;;;7.90;76.60;;;;;;5059992;28;20028;-68
2021/11/17 11:21:40;;;;;;;4.63;3.40;;;7.80;76.60;;;;;;5060815;28;20097;-68
2021/11/17 11:24:50;;;;;;;17.50;3.63;;;7.90;76.60;;;;;;5060400;28;20033;-67
2021/11/17 11:27:23;;;;;;;6.20;2.65;;;7.90;76.60;;;;;;5057543;28;20040;-68
2021/11/17 11:30:09;;;;;;;4.68;3.17;;;7.90;76.90;;;;;;5058083;28;20020;-67
2021/11/17 11:32:34;;;;;;;2.63;2.00;;;7.90;76.60;;;;;;5058250;28;20785;-67
2021/11/17 11:35:03;;;;;;;5.35;2.30;;;7.90;76.90;;;;;;5060055;28;20056;-68
2021/11/17 11:37:32;;;;;;;4.90;2.20;;;8.00;77.00;;;;;;5060443;28;20029;-68
2021/11/17 11:40:01;;;;;;;2.10;1.90;;;8.00;76.40;;;;;;5060647;28;20550;-68
2021/11/17 11:42:58;;;;;;;2.03;1.88;;;8.00;76.40;;;;;;5066677;28;20032;-68
2021/11/17 11:45:26;;;;;;;4.13;2.28;;;8.00;75.40;;;;;;5060240;28;20140;-64
2021/11/17 11:47:56;;;;;;;2.13;1.73;;;8.00;76.10;;;;;;5056400;28;20041;-68
2021/11/17 11:50:31;;;;;;;8.77;5.30;;;7.90;76.40;;;;;;5039955;28;20113;-68
2021/11/17 11:53:16;;;;;;;13.48;7.50;;;8.00;76.40;;;;;;5039122;28;20393;-66
2021/11/17 11:55:53;;;;;;;9.98;6.32;;;8.00;76.50;;;;;;5038993;28;20036;-67
2021/11/17 11:58:20;;;;;;;13.85;6.65;;;8.00;76.30;;;;;;5041433;28;20095;-67
2021/11/17 12:01:13;;;;;;;9.85;4.60;;;8.00;76.60;;;;;;5059382;28;20037;-68
2021/11/17 12:03:52;;;;;;;8.73;4.30;;;8.10;76.10;;;;;;5059896;28;20048;-67
2021/11/17 12:06:26;;;;;;;11.13;8.30;;;8.10;76.10;;;;;;5060005;28;20491;-68
2021/11/17 12:08:59;;;;;;;6.00;5.40;;;8.10;76.20;;;;;;5038924;28;20152;-68
2021/11/17 12:11:31;;;;;;;5.65;3.30;;;8.10;76.30;;;;;;5037196;28;20033;-68
2021/11/17 12:14:02;;;;;;;10.77;2.30;;;8.10;77.20;;;;;;5039477;28;20528;-67
2021/11/17 12:16:30;;;;;;;7.22;1.70;;;8.10;76.00;;;;;;5038911;28;20038;-67
2021/11/17 12:19:10;;;;;;;13.20;2.40;;;8.10;76.10;;;;;;5038464;28;20060;-67
2021/11/17 12:21:39;;;;;;;2.60;1.90;;;8.10;76.00;;;;;;5037876;28;20106;-67
2021/11/17 12:24:21;;;;;;;4.40;2.38;;;8.10;76.00;;;;;;5038904;28;20037;-67
2021/11/17 12:27:20;;;;;;;2.90;2.58;;;8.10;76.00;;;;;;5036908;28;20032;-68
2021/11/17 12:29:54;;;;;;;4.72;3.35;;;8.10;75.30;;;;;;5037512;28;20543;-67
2021/11/17 12:32:29;;;;;;;3.83;3.03;;;8.10;75.80;;;;;;5039691;28;20037;-68
2021/11/17 12:35:13;;;;;;;4.90;2.25;;;8.10;75.80;;;;;;5059094;28;20123;-67
2021/11/17 12:37:55;;;;;;;4.13;1.63;;;8.10;75.60;;;;;;5057838;28;20033;-68
2021/11/17 12:40:32;;;;;;;2.22;1.90;;;8.10;75.60;;;;;;5059404;28;20389;-67
2021/11/17 12:43:00;;;;;;;2.70;1.50;;;8.10;75.50;;;;;;5057244;28;20036;-67
2021/11/17 12:45:32;;;;;;;2.05;1.77;;;8.10;75.60;;;;;;5058524;28;20048;-67
2021/11/17 12:48:00;;;;;;;2.08;1.50;;;8.10;75.30;;;;;;5058638;28;20102;-67
2021/11/17 12:50:34;;;;;;;2.35;1.33;;;8.10;75.60;;;;;;5058901;28;20048;-67
2021/11/17 12:53:10;;;;;;;2.38;1.70;;;8.10;75.80;;;;;;5059100;28;20032;-68
2021/11/17 12:55:59;;;;;;;3.00;1.15;;;8.20;75.50;;;;;;5058776;28;20036;-68
2021/11/17 12:58:34;;;;;;;2.58;1.60;;;8.10;75.10;;;;;;5057330;28;20448;-68
2021/11/17 13:01:21;;;;;;;3.78;1.60;;;8.20;75.80;;;;;;5058405;28;20036;-67
2021/11/17 13:03:47;;;;;;;5.10;2.17;;;8.20;75.30;;;;;;5059011;28;20044;-68
2021/11/17 13:06:41;;;;;;;2.90;2.10;;;8.20;75.80;;;;;;5057784;28;20526;-68
2021/11/17 13:09:35;;;;;;;6.05;1.85;;;8.20;75.60;;;;;;5059596;28;20427;-68
2021/11/17 13:12:03;;;;;;;4.15;2.10;;;8.20;76.50;;;;;;5054329;28;20044;-68
2021/11/17 13:14:32;;;;;;;5.35;2.05;;;8.20;75.60;;;;;;5057923;28;20512;-68
2021/11/17 13:17:21;;;;;;;3.22;2.22;;;8.30;75.60;;;;;;5057361;28;20039;-68
2021/11/17 13:19:57;;;;;;;3.15;2.10;;;8.30;76.30;;;;;;5057580;28;20534;-67
2021/11/17 13:22:28;;;;;;;3.88;1.70;;;8.30;75.60;;;;;;5057465;28;20033;-68
2021/11/17 13:25:26;;;;;;;6.28;1.90;;;8.20;75.70;;;;;;5057772;28;20097;-67
2021/11/17 13:27:56;;;;;;;2.83;2.15;;;8.30;75.40;;;;;;5058328;28;20045;-66
2021/11/17 13:30:44;;;;;;;4.43;1.80;;;8.30;75.80;;;;;;5057935;28;20026;-68
2021/11/17 13:33:29;;;;;;;3.75;1.80;;;8.30;75.40;;;;;;5056150;28;20032;-67
2021/11/17 13:36:35;;;;;;;4.88;2.30;;;8.30;75.40;;;;;;5057582;28;20040;-67
2021/11/17 13:39:01;;;;;;;;;;;8.30;75.30;;;;;;5059879;28;20025;-68
2021/11/17 13:41:26;;;;;;;3.13;2.22;;;8.30;75.40;;;;;;5057037;28;19919;-68
2021/11/17 13:43:52;;;;;;;3.88;2.28;;;8.30;76.00;;;;;;5058172;28;20040;-68
2021/11/17 13:46:20;;;;;;;6.20;2.53;;;8.40;75.90;;;;;;5056887;28;20056;-68
2021/11/17 13:48:48;;;;;;;4.03;2.83;;;8.30;75.80;;;;;;5056898;28;20086;-67
2021/11/17 13:51:19;;;;;;;5.72;3.20;;;8.30;75.70;;;;;;5063184;28;20094;-67
2021/11/17 13:53:44;;;;;;;6.07;4.22;;;8.30;75.70;;;;;;5056941;28;20068;-68
2021/11/17 13:56:15;;;;;;;10.98;5.93;;;8.30;76.00;;;;;;5057073;28;20122;-68
2021/11/17 13:58:40;;;;;;;5.45;2.75;;;8.30;76.00;;;;;;5060701;28;20056;-68
2021/11/17 14:01:07;;;;;;;5.20;2.40;;;8.30;75.80;;;;;;5057924;28;20110;-68
2021/11/17 14:03:34;;;;;;;6.28;2.45;;;8.40;75.70;;;;;;5056936;28;20669;-67
2021/11/17 14:06:03;;;;;;;3.33;2.10;;;8.30;75.70;;;;;;5057334;28;20039;-67
2021/11/17 14:08:33;;;;;;;18.65;10.85;;;8.40;75.80;;;;;;5057633;28;20075;-67
2021/11/17 14:11:00;;;;;;;10.85;5.78;;;8.30;75.80;;;;;;5057568;28;20036;-67
2021/11/17 14:13:27;;;;;;;3.17;2.50;;;8.40;76.00;;;;;;5057445;28;20028;-68
2021/11/17 14:15:53;;;;;;;5.45;2.17;;;8.40;76.00;;;;;;5056778;28;20033;-68
2021/11/17 14:18:20;;;;;;;3.08;2.17;;;8.40;76.00;;;;;;5057688;28;20411;-68
2021/11/17 14:20:46;;;;;;;2.65;1.98;;;8.40;75.90;;;;;;5056529;28;20156;-67
2021/11/17 14:23:13;;;;;;;2.72;2.03;;;8.30;75.80;;;;;;5056788;28;20039;-68
2021/11/17 14:25:41;;;;;;;4.35;1.95;;;8.40;75.90;;;;;;5056945;28;20037;-67
2021/11/17 14:28:13;;;;;;;3.40;2.75;;;8.40;76.00;;;;;;5058020;28;20041;-67
2021/11/17 14:30:48;;;;;;;3.33;1.90;;;8.30;76.00;;;;;;5056498;28;20032;-67
2021/11/17 14:33:19;;;;;;;3.97;2.35;;;8.30;75.80;;;;;;5059153;28;20050;-68
2021/11/17 14:35:44;;;;;;;3.30;1.77;;;8.40;76.10;;;;;;5061150;28;20419;-68
2021/11/17 14:38:16;;;;;;;3.83;1.88;;;8.40;76.10;;;;;;5061026;28;20048;-66
2021/11/17 14:40:41;;;;;;;5.28;1.60;;;8.30;75.80;;;;;;5059623;28;20044;-68
2021/11/17 14:43:07;;;;;;;1.70;1.60;;;8.40;75.80;;;;;;5062465;28;20033;-67
2021/11/17 14:45:33;;;;;;;2.25;1.75;;;8.40;75.60;;;;;;5060704;28;20033;-66
2021/11/17 14:47:59;;;;;;;2.05;1.83;;;8.30;75.30;;;;;;5061216;28;20049;-67
2021/11/17 14:50:25;;;;;;;6.18;2.35;;;8.30;75.50;;;;;;5060151;28;20048;-66
2021/11/17 14:52:51;;;;;;;3.13;2.35;;;8.30;75.60;;;;;;5061084;28;20039;-68
2021/11/17 14:55:21;;;;;;;3.63;2.22;;;8.30;75.80;;;;;;5062181;28;20028;-68
2021/11/17 14:57:47;;;;;;;4.05;2.30;;;8.30;75.90;;;;;;5060535;28;20072;-67
2021/11/17 15:00:19;;;;;;;4.03;2.08;;;8.30;76.10;;;;;;5061650;28;20033;-67
2021/11/17 15:02:45;;;;;;;2.75;1.75;;;8.30;75.80;;;;;;5060217;28;20657;-68
2021/11/17 15:05:11;;;;;;;1.48;1.38;;;8.30;75.60;;;;;;5059950;28;20140;-65
2021/11/17 15:07:37;;;;;;;1.83;1.20;;;8.30;75.40;;;;;;5060928;28;20534;-66
2021/11/17 15:10:06;;;;;;;1.90;1.20;;;8.20;75.40;;;;;;5059503;28;20067;-66
2021/11/17 15:12:33;;;;;;;1.10;1.00;;;8.10;75.30;;;;;;5044296;28;20033;-67
2021/11/17 15:15:01;;;;;;;1.30;1.20;;;8.10;75.50;;;;;;5042758;28;20037;-67
2021/11/17 15:17:27;;;;;;;1.25;1.13;;;8.00;75.50;;;;;;5049418;28;20800;-68
2021/11/17 15:19:53;;;;;;;2.85;1.20;;;7.90;75.70;;;;;;5042578;28;20660;-67
2021/11/17 15:22:22;;;;;;;2.47;1.20;;;7.90;75.80;;;;;;5044863;28;20045;-67
2021/11/17 15:24:48;;;;;;;1.45;1.20;;;7.90;76.00;;;;;;5042365;28;20565;-67
2021/11/17 15:27:31;;;;;;;1.58;1.00;;;7.80;76.30;;;;;;5049905;28;20036;-67
2021/11/17 15:29:58;;;;;;;3.28;1.67;;;7.80;76.00;;;;;;5048763;28;20036;-66
2021/11/17 15:32:24;;;;;;;2.85;1.60;;;7.80;76.20;;;;;;5046070;28;20185;-67
2021/11/17 15:34:50;;;;;;;1.40;1.30;;;7.80;76.40;;;;;;5044156;28;20045;-67
2021/11/17 15:37:16;;;;;;;1.88;1.45;;;7.70;76.50;;;;;;5049418;28;20082;-68
2021/11/17 15:39:42;;;;;;;3.55;1.35;;;7.80;76.60;;;;;;5047461;28;20459;-67
2021/11/17 15:42:08;;;;;;;2.30;1.80;;;7.70;76.50;;;;;;5045410;28;20059;-67
2021/11/17 15:44:34;;;;;;;1.60;1.33;;;7.70;76.60;;;;;;5043174;28;20305;-66
2021/11/17 15:47:03;;;;;;;1.58;1.00;;;7.60;76.60;;;;;;5046484;28;21110;-67
2021/11/17 15:49:30;;;;;;;1.20;1.10;;;7.60;76.40;;;;;;5045623;28;20037;-66
2021/11/17 15:51:58;;;;;;;2.25;1.25;;;7.60;76.40;;;;;;5045143;28;20091;-68
2021/11/17 15:54:24;;;;;;;4.40;1.58;;;7.60;76.40;;;;;;5047527;28;20029;-67
2021/11/17 15:56:52;;;;;;;2.25;1.13;;;7.50;76.50;;;;;;5056138;28;20730;-67
2021/11/17 15:59:19;;;;;;;2.88;1.63;;;7.50;76.60;;;;;;5056609;28;20111;-68
2021/11/17 16:01:46;;;;;;;1.85;1.52;;;7.50;76.60;;;;;;5055890;28;20039;-66
2021/11/17 16:04:12;;;;;;;2.17;1.27;;;7.40;76.70;;;;;;5051802;28;20868;-67
2021/11/17 16:06:56;;;;;;;2.40;1.48;;;7.50;76.80;;;;;;5054596;28;20029;-67